createdAt,value
2022-08-09T00:00:58.001Z,101325.03
2022-08-09T00:04:05.620Z,101341.75
2022-08-09T00:06:19.472Z,101332.03
2022-08-09T00:08:51.870Z,101337.66
2022-08-09T00:11:24.797Z,101340.25
2022-08-09T00:13:53.281Z,101346.84
2022-08-09T00:16:26.429Z,101336.03
2022-08-09T00:19:09.373Z,101343.19
2022-08-09T00:21:43.180Z,101337.53
2022-08-09T00:24:24.705Z,101349.28
2022-08-09T00:26:56.072Z,101341.25
2022-08-09T00:29:39.738Z,101338.31
2022-08-09T00:32:26.630Z,101341.09
2022-08-09T00:35:03.340Z,101346.91
2022-08-09T00:37:32.503Z,101342.81
2022-08-09T00:40:13.434Z,101334.31
2022-08-09T00:44:19.798Z,101344.75
2022-08-09T00:45:34.864Z,101343.88
2022-08-09T00:48:04.487Z,101344.22
2022-08-09T00:50:33.805Z,101349.06
2022-08-09T00:53:10.317Z,101350.84
2022-08-09T00:56:05.226Z,101345.06
2022-08-09T00:58:31.560Z,101350.50
2022-08-09T01:01:00.374Z,101359.34
2022-08-09T01:03:32.773Z,101351.84
2022-08-09T01:06:54.479Z,101356.94
2022-08-09T01:09:48.465Z,101342.56
2022-08-09T01:12:32.722Z,101354.34
2022-08-09T01:15:06.098Z,101350.03
2022-08-09T01:17:57.791Z,101354.59
2022-08-09T01:20:34.792Z,101348.50
2022-08-09T01:24:02.902Z,101350.75
2022-08-09T01:27:07.913Z,101354.84
2022-08-09T01:29:55.711Z,101347.22
2022-08-09T01:32:33.885Z,101350.72
2022-08-09T01:35:28.990Z,101354.59
2022-08-09T01:38:09.697Z,101352.03
2022-08-09T01:40:42.963Z,101357.19
2022-08-09T01:43:12.061Z,101356.75
2022-08-09T01:45:46.358Z,101356.38
2022-08-09T01:48:24.055Z,101354.13
2022-08-09T01:50:59.881Z,101355.19
2022-08-09T01:53:29.260Z,101352.09
2022-08-09T01:56:11.434Z,101355.09
2022-08-09T01:58:40.470Z,101361.47
2022-08-09T02:01:09.918Z,101361.72
2022-08-09T02:03:48.233Z,101353.22
2022-08-09T02:06:38.779Z,101356.78
2022-08-09T02:09:16.418Z,101356.78
2022-08-09T02:11:45.315Z,101356.00
2022-08-09T02:14:26.207Z,101355.06
2022-08-09T02:17:15.434Z,101358.28
2022-08-09T02:19:45.037Z,101365.38
2022-08-09T02:22:41.009Z,101361.59
2022-08-09T02:25:23.171Z,101359.50
2022-08-09T02:28:05.155Z,101356.94
2022-08-09T02:30:39.199Z,101365.38
2022-08-09T02:33:17.008Z,101353.69
2022-08-09T02:36:02.860Z,101362.66
2022-08-09T02:38:36.375Z,101359.75
2022-08-09T02:41:11.132Z,101371.38
2022-08-09T02:43:54.736Z,101365.97
2022-08-09T02:46:27.892Z,101365.31
2022-08-09T02:49:03.045Z,101363.00
2022-08-09T02:51:37.039Z,101370.31
2022-08-09T02:54:13.996Z,101375.72
2022-08-09T02:56:51.272Z,101375.81
2022-08-09T02:59:25.818Z,101374.34
2022-08-09T03:02:05.893Z,101368.22
2022-08-09T03:04:36.269Z,101366.47
2022-08-09T03:07:12.286Z,101371.88
2022-08-09T03:09:56.372Z,101375.25
2022-08-09T03:12:26.040Z,101376.66
2022-08-09T03:14:57.419Z,101379.41
2022-08-09T03:17:27.103Z,101378.84
2022-08-09T03:20:05.000Z,101381.75
2022-08-09T03:22:41.523Z,101376.66
2022-08-09T03:25:26.125Z,101377.56
2022-08-09T03:28:01.853Z,101377.47
2022-08-09T03:30:34.283Z,101380.56
2022-08-09T03:33:17.753Z,101377.63
2022-08-09T03:36:14.021Z,101376.31
2022-08-09T03:38:43.080Z,101377.78
2022-08-09T03:41:15.592Z,101379.03
2022-08-09T03:44:03.265Z,101386.94
2022-08-09T03:46:33.833Z,101376.44
2022-08-09T03:49:04.385Z,101382.22
2022-08-09T03:51:55.455Z,101388.91
2022-08-09T03:54:38.553Z,101386.13
2022-08-09T03:57:17.916Z,101388.84
2022-08-09T03:59:54.771Z,101395.22
2022-08-09T04:02:29.119Z,101394.13
2022-08-09T04:05:05.813Z,101400.00
2022-08-09T04:07:52.843Z,101398.16
2022-08-09T04:10:29.133Z,101399.59
2022-08-09T04:13:04.020Z,101404.50
2022-08-09T04:15:52.392Z,101401.06
2022-08-09T04:18:21.471Z,101403.28
2022-08-09T04:20:51.228Z,101399.81
2022-08-09T04:23:24.475Z,101398.13
2022-08-09T04:25:54.167Z,101404.59
2022-08-09T04:28:30.720Z,101394.94
2022-08-09T04:31:09.883Z,101400.47
2022-08-09T04:33:52.552Z,101403.63
2022-08-09T04:36:27.683Z,101403.25
2022-08-09T04:39:01.535Z,101396.56
2022-08-09T04:41:32.364Z,101396.91
2022-08-09T04:44:11.098Z,101404.22
2022-08-09T04:46:58.932Z,101406.19
2022-08-09T04:49:53.846Z,101405.03
2022-08-09T04:52:27.482Z,101413.38
2022-08-09T04:54:57.087Z,101404.34
2022-08-09T04:57:25.407Z,101406.53
2022-08-09T04:59:55.813Z,101410.00
2022-08-09T05:02:27.530Z,101416.25
2022-08-09T05:04:56.154Z,101412.34
2022-08-09T05:07:29.278Z,101411.56
2022-08-09T05:10:01.620Z,101416.31
2022-08-09T05:12:31.140Z,101414.06
2022-08-09T05:15:01.403Z,101425.78
2022-08-09T05:18:38.909Z,101421.88
2022-08-09T05:20:20.115Z,101429.63
2022-08-09T05:23:53.812Z,101426.03
2022-08-09T05:25:38.198Z,101435.31
2022-08-09T05:28:06.236Z,101437.56
2022-08-09T05:30:34.573Z,101437.38
2022-08-09T05:33:04.720Z,101436.75
2022-08-09T05:35:45.028Z,101439.41
2022-08-09T05:38:22.167Z,101439.78
2022-08-09T05:40:50.796Z,101438.56
2022-08-09T05:43:20.638Z,101437.72
2022-08-09T05:45:55.947Z,101443.00
2022-08-09T05:48:32.728Z,101443.41
2022-08-09T05:51:29.951Z,101441.09
2022-08-09T05:53:56.530Z,101443.47
2022-08-09T05:56:26.939Z,101441.72
2022-08-09T05:58:58.701Z,101441.75
2022-08-09T06:01:33.599Z,101444.31
2022-08-09T06:04:10.401Z,101448.31
2022-08-09T06:06:45.151Z,101448.00
2022-08-09T06:09:23.221Z,101453.44
2022-08-09T06:12:06.587Z,101447.56
2022-08-09T06:14:35.908Z,101449.66
2022-08-09T06:17:05.168Z,101443.47
2022-08-09T06:19:37.648Z,101450.50
2022-08-09T06:22:06.970Z,101447.25
2022-08-09T06:24:43.617Z,101452.19
2022-08-09T06:27:11.294Z,101451.56
2022-08-09T06:29:48.041Z,101458.94
2022-08-09T06:33:00.111Z,101454.16
2022-08-09T06:35:15.153Z,101460.81
2022-08-09T06:37:53.103Z,101450.56
2022-08-09T06:40:30.709Z,101464.44
2022-08-09T06:43:01.263Z,101465.97
2022-08-09T06:46:06.593Z,101465.00
2022-08-09T06:48:17.784Z,101465.88
2022-08-09T06:50:59.464Z,101466.47
2022-08-09T06:53:27.618Z,101461.25
2022-08-09T06:56:07.426Z,101454.38
2022-08-09T07:00:47.569Z,101460.06
2022-08-09T07:01:35.763Z,101452.47
2022-08-09T07:04:19.677Z,101466.88
2022-08-09T07:06:53.309Z,101466.81
2022-08-09T07:09:54.991Z,101466.41
2022-08-09T07:12:13.737Z,101464.41
2022-08-09T07:14:51.153Z,101467.53
2022-08-09T07:17:20.334Z,101464.06
2022-08-09T07:19:50.995Z,101468.88
2022-08-09T07:22:27.445Z,101469.97
2022-08-09T07:25:05.585Z,101467.56
2022-08-09T07:27:43.094Z,101465.91
2022-08-09T07:30:21.763Z,101474.00
2022-08-09T07:32:53.056Z,101477.59
2022-08-09T07:35:23.323Z,101475.75
2022-08-09T07:37:54.024Z,101478.91
2022-08-09T07:40:37.422Z,101477.94
2022-08-09T07:43:16.839Z,101479.53
2022-08-09T07:45:45.053Z,101488.09
2022-08-09T07:48:29.449Z,101485.56
2022-08-09T07:51:10.262Z,101486.13
2022-08-09T07:54:04.799Z,101490.94
2022-08-09T07:56:37.052Z,101488.44
2022-08-09T07:59:21.219Z,101493.84
2022-08-09T08:02:01.387Z,101491.84
2022-08-09T08:04:31.804Z,101482.06
2022-08-09T08:07:15.199Z,101492.88
2022-08-09T08:09:59.748Z,101496.88
2022-08-09T08:12:35.756Z,101491.03
2022-08-09T08:15:07.415Z,101489.03
2022-08-09T08:17:54.780Z,101493.41
2022-08-09T08:20:30.776Z,101491.28
2022-08-09T08:23:06.477Z,101483.63
2022-08-09T08:25:50.399Z,101491.47
2022-08-09T08:28:35.263Z,101487.63
2022-08-09T08:31:14.025Z,101495.25
2022-08-09T08:33:52.468Z,101491.63
2022-08-09T08:36:28.963Z,101489.22
2022-08-09T08:38:58.375Z,101496.78
2022-08-09T08:41:42.113Z,101494.44
2022-08-09T08:44:16.594Z,101498.34
2022-08-09T08:47:03.248Z,101494.69
2022-08-09T08:49:38.914Z,101495.38
2022-08-09T08:52:58.521Z,101497.63
2022-08-09T08:55:06.336Z,101491.41
2022-08-09T08:57:35.894Z,101490.28
2022-08-09T09:00:17.049Z,101496.09
2022-08-09T09:03:00.374Z,101482.91
2022-08-09T09:06:00.008Z,101495.47
2022-08-09T09:08:30.419Z,101487.31
2022-08-09T09:11:06.251Z,101485.81
2022-08-09T09:13:50.196Z,101487.31
2022-08-09T09:16:30.225Z,101492.69
2022-08-09T09:22:04.194Z,101490.16
2022-08-09T09:24:38.848Z,101490.63
2022-08-09T09:27:09.380Z,101491.06
2022-08-09T09:32:38.126Z,101497.69
2022-08-09T09:35:09.963Z,101497.13
2022-08-09T09:37:40.722Z,101489.50
2022-08-09T09:40:11.695Z,101495.66
2022-08-09T09:42:46.366Z,101492.41
2022-08-09T09:45:25.740Z,101497.09
2022-08-09T09:47:58.547Z,101489.53
2022-08-09T09:50:51.020Z,101495.28
2022-08-09T09:53:57.339Z,101486.50
2022-08-09T09:56:20.141Z,101487.00
2022-08-09T09:59:02.339Z,101486.31
2022-08-09T10:01:37.452Z,101489.09
2022-08-09T10:04:16.268Z,101483.59
2022-08-09T10:06:51.785Z,101488.34
2022-08-09T10:09:23.889Z,101486.66
2022-08-09T10:12:14.474Z,101491.34
2022-08-09T10:14:49.439Z,101484.25
2022-08-09T10:17:39.610Z,101488.25
2022-08-09T10:20:27.111Z,101488.88
2022-08-09T10:23:17.177Z,101484.19
2022-08-09T10:26:07.713Z,101487.47
2022-08-09T10:28:38.412Z,101484.47
2022-08-09T10:34:09.610Z,101482.09
2022-08-09T10:36:45.245Z,101489.19
2022-08-09T10:39:15.620Z,101480.03
2022-08-09T10:41:47.754Z,101479.72
2022-08-09T10:44:25.401Z,101478.31
2022-08-09T10:48:19.203Z,101477.84
2022-08-09T10:51:13.723Z,101475.50
2022-08-09T10:54:04.699Z,101471.97
2022-08-09T10:56:38.698Z,101476.41
2022-08-09T10:59:30.806Z,101473.13
2022-08-09T11:03:14.732Z,101472.00
2022-08-09T11:05:25.297Z,101470.88
2022-08-09T11:08:17.747Z,101471.09
2022-08-09T11:11:00.761Z,101471.66
2022-08-09T11:13:50.661Z,101479.66
2022-08-09T11:16:39.143Z,101456.69
2022-08-09T11:19:10.290Z,101463.94
2022-08-09T11:22:10.504Z,101455.00
2022-08-09T11:25:15.074Z,101453.13
2022-08-09T11:28:04.602Z,101455.34
2022-08-09T11:30:36.142Z,101462.81
2022-08-09T11:33:05.938Z,101449.53
2022-08-09T11:35:53.613Z,101456.44
2022-08-09T11:38:32.196Z,101451.75
2022-08-09T11:41:14.219Z,101454.44
2022-08-09T11:43:49.089Z,101447.16
2022-08-09T11:46:18.473Z,101449.09
2022-08-09T11:49:05.102Z,101446.84
2022-08-09T11:53:02.718Z,101450.66
2022-08-09T11:55:51.602Z,101445.06
2022-08-09T11:58:30.497Z,101446.19
2022-08-09T12:01:03.616Z,101440.53
2022-08-09T12:03:56.114Z,101434.00
2022-08-09T12:06:32.207Z,101435.72
2022-08-09T12:09:19.513Z,101430.13
2022-08-09T12:12:05.937Z,101428.00
2022-08-09T12:15:03.873Z,101421.25
2022-08-09T12:17:34.497Z,101424.59
2022-08-09T12:20:21.694Z,101419.47
2022-08-09T12:22:55.975Z,101418.34
2022-08-09T12:25:37.685Z,101427.53
2022-08-09T12:29:12.697Z,101424.84
2022-08-09T12:31:58.113Z,101418.59
2022-08-09T12:34:05.259Z,101411.03
2022-08-09T12:36:34.086Z,101412.75
2022-08-09T12:39:14.664Z,101409.94
2022-08-09T12:41:42.617Z,101407.81
2022-08-09T12:44:13.148Z,101413.31
2022-08-09T12:46:49.911Z,101418.44
2022-08-09T12:49:20.941Z,101405.97
2022-08-09T12:52:02.669Z,101401.28
2022-08-09T12:56:14.893Z,101394.88
2022-08-09T12:57:47.054Z,101400.31
2022-08-09T13:00:25.145Z,101392.84
2022-08-09T13:03:00.688Z,101393.16
2022-08-09T13:05:51.475Z,101388.59
2022-08-09T13:08:40.221Z,101391.16
2022-08-09T13:11:23.133Z,101386.91
2022-08-09T13:14:41.540Z,101390.81
2022-08-09T13:16:54.324Z,101398.06
2022-08-09T13:20:07.411Z,101400.47
2022-08-09T13:22:35.952Z,101407.31
2022-08-09T13:25:14.308Z,101394.22
2022-08-09T13:27:54.305Z,101403.38
2022-08-09T13:31:10.842Z,101397.41
2022-08-09T13:33:23.189Z,101395.78
2022-08-09T13:36:24.421Z,101395.91
2022-08-09T13:38:55.688Z,101392.69
2022-08-09T13:41:53.963Z,101397.53
2022-08-09T13:44:16.845Z,101388.38
2022-08-09T13:47:26.575Z,101398.53
2022-08-09T13:49:39.701Z,101407.34
2022-08-09T13:52:24.662Z,101397.25
2022-08-09T13:54:59.389Z,101395.38
2022-08-09T13:57:36.702Z,101402.91
2022-08-09T14:00:19.566Z,101402.09
2022-08-09T14:03:03.910Z,101395.75
2022-08-09T14:06:01.460Z,101397.19
2022-08-09T14:08:28.377Z,101392.94
2022-08-09T14:10:57.157Z,101385.97
2022-08-09T14:14:15.643Z,101393.25
2022-08-09T14:16:16.781Z,101385.91
2022-08-09T14:18:49.764Z,101382.69
2022-08-09T14:21:23.067Z,101384.06
2022-08-09T14:23:55.214Z,101389.00
2022-08-09T14:26:30.517Z,101387.91
2022-08-09T14:29:08.284Z,101386.47
2022-08-09T14:31:54.941Z,101380.00
2022-08-09T14:34:31.956Z,101377.09
2022-08-09T14:37:02.180Z,101372.25
2022-08-09T14:39:45.445Z,101371.09
2022-08-09T14:42:30.469Z,101366.47
2022-08-09T14:46:38.970Z,101364.34
2022-08-09T14:47:57.408Z,101367.00
2022-08-09T14:50:33.178Z,101363.47
2022-08-09T14:53:11.054Z,101366.38
2022-08-09T14:55:41.954Z,101366.13
2022-08-09T14:58:11.171Z,101360.00
2022-08-09T15:00:42.550Z,101362.66
2022-08-09T15:03:19.988Z,101365.81
2022-08-09T15:05:51.442Z,101359.38
2022-08-09T15:08:26.387Z,101364.81
2022-08-09T15:11:01.543Z,101361.22
2022-08-09T15:13:48.663Z,101358.28
2022-08-09T15:16:20.950Z,101351.44
2022-08-09T15:18:49.690Z,101354.00
2022-08-09T15:22:00.840Z,101355.09
2022-08-09T15:24:12.674Z,101351.69
2022-08-09T15:26:46.519Z,101346.19
2022-08-09T15:30:55.476Z,101345.94
2022-08-09T15:32:03.819Z,101348.72
2022-08-09T15:34:35.469Z,101346.56
2022-08-09T15:37:37.910Z,101352.53
2022-08-09T15:40:15.304Z,101356.94
2022-08-09T15:42:48.955Z,101345.66
2022-08-09T15:45:21.700Z,101348.72
2022-08-09T15:48:05.074Z,101348.28
2022-08-09T15:50:39.275Z,101347.06
2022-08-09T15:53:17.940Z,101346.97
2022-08-09T15:56:21.148Z,101338.72
2022-08-09T15:58:43.483Z,101339.72
2022-08-09T16:01:11.497Z,101354.66
2022-08-09T16:03:41.795Z,101349.19
2022-08-09T16:06:28.321Z,101352.31
2022-08-09T16:09:01.152Z,101353.75
2022-08-09T16:11:33.282Z,101359.44
2022-08-09T16:14:07.182Z,101355.91
2022-08-09T16:16:41.915Z,101359.78
2022-08-09T16:19:14.066Z,101354.25
2022-08-09T16:21:42.991Z,101357.16
2022-08-09T16:24:29.882Z,101366.16
2022-08-09T16:27:02.325Z,101360.22
2022-08-09T16:29:36.649Z,101360.66
2022-08-09T16:32:19.257Z,101365.38
2022-08-09T16:34:57.818Z,101361.31
2022-08-09T16:37:53.118Z,101360.81
2022-08-09T16:40:20.387Z,101362.09
2022-08-09T16:42:58.491Z,101362.53
2022-08-09T16:45:27.140Z,101371.81
2022-08-09T16:48:41.448Z,101361.16
2022-08-09T16:50:58.726Z,101360.09
2022-08-09T16:53:32.242Z,101361.25
2022-08-09T16:56:06.000Z,101360.09
2022-08-09T16:58:36.096Z,101361.44
2022-08-09T17:01:05.466Z,101362.59
2022-08-09T17:03:33.367Z,101368.97
2022-08-09T17:06:07.161Z,101366.63
2022-08-09T17:08:47.087Z,101369.34
2022-08-09T17:11:40.723Z,101374.13
2022-08-09T17:14:26.577Z,101372.47
2022-08-09T17:17:01.541Z,101373.25
2022-08-09T17:20:04.915Z,101381.25
2022-08-09T17:22:30.892Z,101376.13
2022-08-09T17:25:03.678Z,101370.44
2022-08-09T17:27:38.238Z,101375.69
2022-08-09T17:30:12.983Z,101389.03
2022-08-09T17:32:45.453Z,101386.47
2022-08-09T17:35:14.843Z,101395.03
2022-08-09T17:38:02.453Z,101392.75
2022-08-09T17:40:34.497Z,101396.94
2022-08-09T17:43:32.003Z,101389.13
2022-08-09T17:46:03.580Z,101404.16
2022-08-09T17:48:39.779Z,101402.44
2022-08-09T17:51:19.114Z,101399.56
2022-08-09T17:53:53.009Z,101405.81
2022-08-09T17:56:29.213Z,101406.56
2022-08-09T17:59:09.002Z,101404.75
2022-08-09T18:02:03.682Z,101401.66
2022-08-09T18:04:25.274Z,101406.66
2022-08-09T18:07:23.748Z,101396.22
2022-08-09T18:09:42.790Z,101405.47
2022-08-09T18:12:19.407Z,101405.53
2022-08-09T18:14:54.490Z,101404.53
2022-08-09T18:17:27.739Z,101411.34
2022-08-09T18:20:56.209Z,101413.19
2022-08-09T18:23:04.960Z,101407.19
2022-08-09T18:25:50.310Z,101405.72
2022-08-09T18:30:41.930Z,101414.28
2022-08-09T18:31:12.039Z,101407.53
2022-08-09T18:33:40.616Z,101413.22
2022-08-09T18:36:14.351Z,101417.59
2022-08-09T18:38:57.553Z,101418.84
2022-08-09T18:41:34.371Z,101420.72
2022-08-09T18:44:12.992Z,101416.41
2022-08-09T18:46:46.010Z,101424.97
2022-08-09T18:49:26.218Z,101426.91
2022-08-09T18:51:55.151Z,101427.63
2022-08-09T18:54:28.806Z,101423.09
2022-08-09T18:57:06.069Z,101422.41
2022-08-09T18:59:37.516Z,101419.31
2022-08-09T19:02:19.107Z,101421.78
2022-08-09T19:04:47.447Z,101420.53
2022-08-09T19:07:16.514Z,101428.41
2022-08-09T19:10:17.387Z,101421.91
2022-08-09T19:12:36.699Z,101431.72
2022-08-09T19:15:07.079Z,101435.66
2022-08-09T19:17:54.560Z,101432.91
2022-08-09T19:20:24.548Z,101436.69
2022-08-09T19:22:54.447Z,101426.50
2022-08-09T19:25:41.951Z,101429.78
2022-08-09T19:28:13.452Z,101435.22
2022-08-09T19:30:44.609Z,101429.25
2022-08-09T19:33:19.465Z,101431.91
2022-08-09T19:35:58.035Z,101436.13
2022-08-09T19:38:27.726Z,101435.22
2022-08-09T19:41:00.431Z,101429.94
2022-08-09T19:44:02.160Z,101437.72
2022-08-09T19:46:17.061Z,101437.00
2022-08-09T19:50:05.369Z,101436.81
2022-08-09T19:51:55.741Z,101435.44
2022-08-09T19:54:25.080Z,101432.66
2022-08-09T19:56:54.057Z,101427.50
2022-08-09T19:59:58.343Z,101434.22
2022-08-09T20:02:17.168Z,101434.22
2022-08-09T20:05:01.171Z,101437.66
2022-08-09T20:07:33.975Z,101439.25
2022-08-09T20:10:22.103Z,101432.50
2022-08-09T20:12:52.033Z,101433.66
2022-08-09T20:16:35.773Z,101433.78
2022-08-09T20:18:08.714Z,101428.22
2022-08-09T20:20:37.861Z,101424.78
2022-08-09T20:23:06.924Z,101429.47
2022-08-09T20:25:49.572Z,101424.50
2022-08-09T20:28:34.275Z,101430.66
2022-08-09T20:31:04.982Z,101432.91
2022-08-09T20:33:39.043Z,101434.78
2022-08-09T20:36:12.947Z,101421.06
2022-08-09T20:41:35.003Z,101433.22
2022-08-09T20:44:09.978Z,101428.59
2022-08-09T20:46:44.744Z,101432.44
2022-08-09T20:49:15.846Z,101433.31
2022-08-09T20:51:50.360Z,101432.16
2022-08-09T20:54:18.520Z,101428.22
2022-08-09T20:56:49.716Z,101425.53
2022-08-09T20:59:24.995Z,101428.81
2022-08-09T21:02:11.871Z,101429.00
2022-08-09T21:05:53.445Z,101430.31
2022-08-09T21:07:40.223Z,101430.06
2022-08-09T21:10:10.932Z,101433.63
2022-08-09T21:12:39.713Z,101425.44
2022-08-09T21:15:12.553Z,101430.00
2022-08-09T21:18:23.294Z,101427.88
2022-08-09T21:20:30.708Z,101425.56
2022-08-09T21:23:00.549Z,101426.66
2022-08-09T21:25:55.559Z,101425.31
2022-08-09T21:28:36.579Z,101425.53
2022-08-09T21:31:16.653Z,101434.03
2022-08-09T21:33:51.668Z,101432.66
2022-08-09T21:36:28.088Z,101434.59
2022-08-09T21:38:58.803Z,101438.31
2022-08-09T21:42:03.854Z,101439.53
2022-08-09T21:44:32.959Z,101435.50
2022-08-09T21:47:07.640Z,101445.13
2022-08-09T21:49:39.248Z,101445.19
2022-08-09T21:52:16.969Z,101442.94
2022-08-09T21:54:59.706Z,101440.84
2022-08-09T21:57:38.495Z,101440.38
2022-08-09T22:00:33.574Z,101444.03
2022-08-09T22:03:06.972Z,101434.72
2022-08-09T22:05:42.474Z,101438.47
2022-08-09T22:08:14.664Z,101441.41
2022-08-09T22:11:49.842Z,101446.47
2022-08-09T22:13:36.624Z,101440.41
2022-08-09T22:16:07.146Z,101446.94
2022-08-09T22:18:44.173Z,101439.28
2022-08-09T22:21:24.358Z,101441.25
2022-08-09T22:23:59.345Z,101438.81
2022-08-09T22:26:35.512Z,101437.09
2022-08-09T22:29:09.897Z,101439.81
2022-08-09T22:31:50.421Z,101439.91
2022-08-09T22:34:26.696Z,101428.94
2022-08-09T22:36:58.962Z,101433.53
2022-08-09T22:39:56.360Z,101435.47
2022-08-09T22:42:21.430Z,101432.97
2022-08-09T22:45:00.286Z,101427.91
2022-08-09T22:48:35.577Z,101425.50
2022-08-09T22:50:29.751Z,101430.78
2022-08-09T22:52:58.807Z,101425.41
2022-08-09T22:56:06.465Z,101436.47
2022-08-09T22:58:20.299Z,101430.69
2022-08-09T23:00:59.165Z,101434.31
2022-08-09T23:04:02.535Z,101428.44
2022-08-09T23:06:14.705Z,101425.97
2022-08-09T23:09:00.505Z,101426.16
2022-08-09T23:11:28.092Z,101431.53
2022-08-09T23:13:55.903Z,101428.06
2022-08-09T23:16:23.759Z,101424.63
2022-08-09T23:18:51.394Z,101429.91
2022-08-09T23:21:25.184Z,101425.22
2022-08-09T23:24:05.496Z,101423.81
2022-08-09T23:26:39.334Z,101426.75
2022-08-09T23:29:11.639Z,101439.69
2022-08-09T23:31:42.678Z,101431.19
2022-08-09T23:34:10.803Z,101432.19
2022-08-09T23:36:38.412Z,101428.94
2022-08-09T23:39:07.877Z,101429.69
2022-08-09T23:41:36.271Z,101428.84
2022-08-09T23:44:04.377Z,101423.72
2022-08-09T23:46:32.973Z,101434.38
2022-08-09T23:49:01.029Z,101428.28
2022-08-09T23:51:29.090Z,101427.56
2022-08-09T23:54:00.729Z,101432.91
2022-08-09T23:56:53.615Z,101434.72
2022-08-09T23:59:24.202Z,101432.91
